Time;durP1;ratioP1;P1;durP2;ratioP2;P2;SDS_P1;SDS_P2;PMS_P1;PMS_P2;Temp;Humidity;BMP_temperature;BMP_pressure;BME280_temperature;BME280_humidity;BME280_pressure;Samples;Min_cycle;Max_cycle;Signal;HPM_P1;HPM_P2
2020/12/15 06:01:35;;;;;;;11.30;4.10;;;18.10;52.80;;;;;;4236941;27;20145;-57
2020/12/15 06:04:01;;;;;;;15.55;4.07;;;18.10;53.40;;;;;;4229668;28;20627;-57
2020/12/15 06:06:24;;;;;;;11.45;4.40;;;18.20;54.20;;;;;;4225427;28;20504;-57
2020/12/15 06:08:47;;;;;;;9.30;4.10;;;18.20;53.70;;;;;;4227195;28;20097;-57
2020/12/15 06:11:13;;;;;;;16.13;4.25;;;18.20;53.30;;;;;;4217856;28;20055;-58
2020/12/15 06:13:33;;;;;;;18.48;5.07;;;18.20;53.10;;;;;;4212594;28;20055;-58
2020/12/15 06:15:53;;;;;;;12.15;4.10;;;18.20;53.90;;;;;;4211173;28;20103;-58
2020/12/15 06:18:24;;;;;;;9.85;3.90;;;18.30;54.50;;;;;;4212521;28;20120;-58
2020/12/15 06:20:47;;;;;;;12.13;4.03;;;18.30;53.80;;;;;;4212238;28;20137;-58
2020/12/15 06:23:14;;;;;;;9.43;3.30;;;18.30;53.70;;;;;;4212408;28;20101;-58
2020/12/15 06:25:38;;;;;;;9.98;3.78;;;18.30;53.50;;;;;;4214831;28;20460;-59
2020/12/15 06:28:04;;;;;;;;;;;18.30;53.20;;;;;;4220236;28;20058;-58
2020/12/15 06:30:29;;;;;;;12.55;3.45;;;18.30;52.70;;;;;;4232115;28;19934;-58
2020/12/15 06:32:59;;;;;;;8.20;3.75;;;18.30;53.10;;;;;;4234353;28;20101;-59
2020/12/15 06:35:26;;;;;;;9.63;3.42;;;18.30;52.90;;;;;;4223390;28;20062;-58
2020/12/15 06:37:47;;;;;;;14.18;3.95;;;18.30;53.60;;;;;;4228637;28;20075;-58
2020/12/15 06:40:10;;;;;;;10.88;3.03;;;18.30;53.70;;;;;;4227900;28;20046;-58
2020/12/15 06:42:32;;;;;;;26.23;4.72;;;18.30;53.70;;;;;;4226379;28;20059;-58
2020/12/15 06:45:04;;;;;;;11.75;2.75;;;18.30;53.80;;;;;;4228778;28;20401;-58
2020/12/15 06:47:26;;;;;;;17.05;3.83;;;18.30;53.30;;;;;;4581765;22;20902;-62
2020/12/15 06:49:49;;;;;;;18.10;4.95;;;18.30;52.80;;;;;;4182655;28;20071;-61
2020/12/15 06:52:10;;;;;;;16.17;5.32;;;18.30;50.60;;;;;;4187203;28;20067;-62
2020/12/15 06:57:05;;;;;;;17.15;4.97;;;18.20;51.00;;;;;;4961463;22;20035;-72
2020/12/15 06:59:35;;;;;;;11.20;4.03;;;18.20;51.00;;;;;;4180509;28;20056;-67
2020/12/15 07:02:10;;;;;;;11.35;4.25;;;18.30;51.20;;;;;;4150274;28;20413;-71
2020/12/15 07:04:33;;;;;;;5.40;3.50;;;18.30;51.00;;;;;;4151563;28;20080;-69
2020/12/15 07:06:59;;;;;;;8.50;4.05;;;18.30;50.90;;;;;;4154535;28;20064;-66
2020/12/15 07:09:20;;;;;;;7.90;3.45;;;18.30;51.40;;;;;;4142118;28;20068;-68
2020/12/15 07:11:43;;;;;;;7.70;3.97;;;18.30;51.00;;;;;;4138325;28;20456;-66
2020/12/15 07:14:06;;;;;;;8.57;4.50;;;18.30;50.90;;;;;;4131962;28;20064;-66
2020/12/15 07:16:27;;;;;;;4.28;3.30;;;18.30;50.70;;;;;;4132262;28;20409;-67
2020/12/15 07:18:49;;;;;;;7.57;3.03;;;18.30;50.80;;;;;;4132048;28;20101;-68
2020/12/15 07:21:10;;;;;;;3.53;2.72;;;18.30;50.90;;;;;;4134131;28;20053;-66
2020/12/15 07:23:31;;;;;;;;;;;18.30;51.00;;;;;;4134585;28;20112;-67
2020/12/15 07:25:52;;;;;;;5.13;3.00;;;18.30;51.10;;;;;;4133724;28;19947;-68
2020/12/15 07:28:13;;;;;;;4.45;2.67;;;18.30;51.10;;;;;;4134294;28;20096;-67
2020/12/15 07:30:38;;;;;;;3.85;2.53;;;18.30;51.20;;;;;;4134220;28;20452;-66
2020/12/15 07:32:58;;;;;;;10.00;2.92;;;18.30;51.30;;;;;;4138867;28;20627;-69
2020/12/15 07:35:23;;;;;;;6.25;2.75;;;18.30;51.40;;;;;;4150314;28;20072;-67
2020/12/15 07:37:46;;;;;;;7.35;3.60;;;18.40;51.40;;;;;;4149835;28;20057;-67
2020/12/15 07:40:10;;;;;;;9.32;4.85;;;18.30;51.40;;;;;;4149830;28;20515;-69
2020/12/15 07:42:32;;;;;;;8.48;4.88;;;18.40;52.00;;;;;;4141862;28;20060;-67
2020/12/15 07:45:07;;;;;;;8.07;4.40;;;18.40;51.40;;;;;;4116367;28;20115;-67
2020/12/15 07:47:37;;;;;;;15.00;4.72;;;18.40;51.40;;;;;;4116362;28;20105;-74
2020/12/15 07:50:00;;;;;;;15.73;5.55;;;18.40;51.60;;;;;;4115422;28;20057;-68
2020/12/15 07:52:33;;;;;;;9.57;5.13;;;18.40;51.20;;;;;;4115045;28;20069;-72
2020/12/15 07:55:01;;;;;;;13.02;5.30;;;18.40;51.40;;;;;;4119030;28;20057;-69
2020/12/15 07:57:24;;;;;;;8.73;4.53;;;18.40;51.20;;;;;;4130971;28;20077;-71
2020/12/15 07:59:45;;;;;;;9.88;4.43;;;18.40;50.90;;;;;;4129525;28;20116;-70
2020/12/15 08:02:17;;;;;;;11.38;4.38;;;18.40;50.90;;;;;;4131644;28;20061;-68
2020/12/15 08:04:38;;;;;;;;;;;18.40;51.10;;;;;;4131934;28;20069;-67
2020/12/15 08:07:02;;;;;;;8.90;4.55;;;18.40;50.70;;;;;;4131373;28;20351;-68
2020/12/15 08:09:24;;;;;;;8.85;3.90;;;18.40;50.90;;;;;;4113688;28;20114;-71
2020/12/15 08:11:46;;;;;;;13.10;4.97;;;18.40;50.90;;;;;;4114902;28;20061;-69
2020/12/15 08:14:08;;;;;;;11.13;4.22;;;18.40;51.20;;;;;;4115461;28;20070;-68
2020/12/15 08:16:32;;;;;;;12.30;4.95;;;18.40;52.90;;;;;;4115747;28;20140;-69
2020/12/15 08:19:01;;;;;;;7.28;4.00;;;18.50;53.30;;;;;;4130671;28;20128;-71
2020/12/15 08:21:23;;;;;;;10.82;3.80;;;18.70;53.20;;;;;;4130304;28;20154;-73
2020/12/15 08:23:51;;;;;;;8.32;3.97;;;18.80;53.20;;;;;;4129788;28;20097;-73
2020/12/15 08:26:18;;;;;;;5.80;3.53;;;18.90;53.10;;;;;;4131534;28;20061;-69
2020/12/15 08:28:39;;;;;;;8.52;4.05;;;19.00;52.90;;;;;;4130398;28;20073;-69
2020/12/15 08:31:08;;;;;;;9.90;4.18;;;19.20;52.90;;;;;;4131444;28;20062;-69
2020/12/15 08:33:31;;;;;;;9.60;4.10;;;19.20;52.80;;;;;;4129668;28;20181;-70
2020/12/15 08:35:52;;;;;;;7.85;4.10;;;19.30;52.80;;;;;;4129261;28;20083;-70
2020/12/15 08:38:13;;;;;;;12.05;3.80;;;19.30;52.90;;;;;;4127320;28;20064;-71
2020/12/15 08:40:33;;;;;;;7.10;3.55;;;19.30;52.70;;;;;;4126363;28;20058;-70
2020/12/15 08:42:58;;;;;;;8.90;4.03;;;19.40;52.70;;;;;;4135923;28;20163;-68
2020/12/15 08:45:25;;;;;;;10.93;3.33;;;19.50;52.60;;;;;;4139813;28;20061;-68
2020/12/15 08:47:49;;;;;;;7.57;3.35;;;19.60;52.40;;;;;;4128075;28;20053;-70
2020/12/15 08:50:13;;;;;;;6.53;3.85;;;19.60;52.30;;;;;;4127892;28;20053;-67
2020/12/15 08:52:33;;;;;;;8.27;3.78;;;19.70;52.30;;;;;;4128414;28;20561;-73
2020/12/15 08:54:56;;;;;;;8.77;3.22;;;19.80;52.40;;;;;;4126857;28;20061;-72
2020/12/15 08:57:18;;;;;;;6.70;3.33;;;19.80;52.40;;;;;;4112958;28;20114;-69
2020/12/15 08:59:42;;;;;;;8.18;3.38;;;19.90;52.30;;;;;;4127687;28;20061;-70
2020/12/15 09:02:07;;;;;;;8.25;3.60;;;20.00;52.30;;;;;;4115328;28;20057;-73
2020/12/15 09:04:28;;;;;;;6.72;3.15;;;20.00;52.20;;;;;;4129581;28;20563;-69
2020/12/15 09:06:52;;;;;;;9.50;3.65;;;20.00;52.30;;;;;;4126195;28;20061;-67
2020/12/15 09:09:16;;;;;;;6.47;3.00;;;20.10;52.40;;;;;;4123970;28;20073;-67
2020/12/15 09:11:36;;;;;;;8.37;3.63;;;20.20;52.90;;;;;;4126751;28;20060;-70
2020/12/15 09:13:59;;;;;;;7.67;3.57;;;20.30;52.90;;;;;;4132314;28;20116;-66
2020/12/15 09:16:32;;;;;;;6.72;2.83;;;20.30;52.30;;;;;;4138935;28;20810;-70
2020/12/15 09:18:55;;;;;;;9.27;3.08;;;20.30;52.20;;;;;;4132997;28;20107;-67
2020/12/15 09:21:18;;;;;;;10.80;3.85;;;20.40;52.20;;;;;;4130767;28;20052;-69
2020/12/15 09:23:39;;;;;;;7.03;3.10;;;20.50;52.20;;;;;;4130404;28;20104;-68
2020/12/15 09:26:00;;;;;;;8.85;3.40;;;20.50;52.20;;;;;;4130835;28;20061;-68
2020/12/15 09:28:26;;;;;;;11.07;3.65;;;20.50;52.10;;;;;;4129746;28;20065;-68
2020/12/15 09:30:50;;;;;;;7.45;3.10;;;20.50;52.10;;;;;;4128801;28;20058;-70
2020/12/15 09:33:10;;;;;;;;;;;20.50;52.20;;;;;;4130729;28;20065;-70
2020/12/15 09:35:31;;;;;;;8.15;3.35;;;20.60;52.00;;;;;;4129648;28;20343;-70
2020/12/15 09:37:51;;;;;;;4.85;2.85;;;20.60;51.60;;;;;;4129776;28;20566;-67
2020/12/15 09:40:13;;;;;;;10.53;3.37;;;20.60;51.40;;;;;;4129343;28;20153;-68
2020/12/15 09:42:37;;;;;;;6.18;2.70;;;20.70;51.50;;;;;;4128239;28;20503;-67
2020/12/15 09:44:57;;;;;;;6.95;3.15;;;20.70;51.40;;;;;;4129095;28;20112;-66
2020/12/15 09:47:20;;;;;;;5.97;2.80;;;20.80;51.30;;;;;;4129718;28;20065;-67
2020/12/15 09:49:40;;;;;;;5.43;3.00;;;20.80;51.20;;;;;;4143998;28;20622;-67
2020/12/15 09:52:00;;;;;;;6.53;3.15;;;20.90;51.30;;;;;;4143855;28;20133;-66
2020/12/15 09:54:25;;;;;;;8.93;3.15;;;21.00;51.40;;;;;;4145235;28;20065;-66
2020/12/15 09:56:46;;;;;;;4.00;2.28;;;21.00;51.30;;;;;;4144852;28;20057;-67
2020/12/15 09:59:07;;;;;;;7.68;2.92;;;21.00;51.20;;;;;;4127712;28;20064;-67
2020/12/15 10:01:30;;;;;;;5.30;2.88;;;21.00;51.30;;;;;;4128701;28;20085;-67
2020/12/15 10:03:53;;;;;;;5.80;3.08;;;21.00;51.40;;;;;;4127991;28;20062;-67
2020/12/15 10:06:17;;;;;;;7.55;2.92;;;20.90;51.40;;;;;;4128820;28;20061;-67
2020/12/15 10:08:37;;;;;;;8.30;3.40;;;20.90;51.30;;;;;;4127461;28;20507;-67
2020/12/15 10:11:00;;;;;;;5.47;2.92;;;20.90;51.30;;;;;;4125733;28;20053;-67
2020/12/15 10:13:21;;;;;;;4.90;2.65;;;20.90;51.30;;;;;;4123940;28;20066;-69
2020/12/15 10:15:44;;;;;;;7.72;3.25;;;20.90;51.40;;;;;;4124136;28;20112;-68
2020/12/15 10:18:09;;;;;;;8.20;2.95;;;20.90;51.40;;;;;;4126666;28;20084;-67
2020/12/15 10:20:30;;;;;;;7.50;3.42;;;20.90;51.50;;;;;;4121739;28;20050;-67
2020/12/15 10:22:50;;;;;;;7.18;2.83;;;20.80;50.50;;;;;;4128208;28;20126;-73
2020/12/15 10:25:13;;;;;;;8.57;3.60;;;20.70;50.40;;;;;;4125491;28;20112;-73
2020/12/15 10:27:36;;;;;;;8.35;3.47;;;20.60;50.30;;;;;;4125975;28;20571;-71
2020/12/15 10:30:01;;;;;;;6.85;3.00;;;20.60;50.30;;;;;;4128723;28;20108;-70
2020/12/15 10:32:24;;;;;;;6.47;2.83;;;20.60;50.30;;;;;;4124814;28;20128;-74
2020/12/15 10:34:45;;;;;;;8.23;2.90;;;20.60;50.20;;;;;;4125562;28;20066;-69
2020/12/15 10:37:08;;;;;;;6.57;3.00;;;20.60;50.10;;;;;;4126598;28;20057;-65
2020/12/15 10:39:28;;;;;;;5.63;2.88;;;20.60;50.20;;;;;;4126876;28;20188;-67
2020/12/15 10:41:50;;;;;;;5.93;2.47;;;20.60;50.20;;;;;;4122372;28;20420;-74
2020/12/15 10:44:14;;;;;;;7.40;2.67;;;20.50;50.20;;;;;;4127394;28;20058;-74
2020/12/15 10:46:37;;;;;;;3.83;2.40;;;20.50;50.20;;;;;;4127069;28;20100;-72
2020/12/15 10:48:57;;;;;;;6.20;2.42;;;20.50;50.20;;;;;;4127555;28;20117;-74
2020/12/15 10:51:18;;;;;;;6.18;2.30;;;20.50;50.20;;;;;;4124908;28;20053;-75
2020/12/15 10:53:38;;;;;;;6.40;2.63;;;20.50;50.20;;;;;;4129142;28;20061;-74
2020/12/15 10:56:01;;;;;;;3.92;2.72;;;20.50;50.20;;;;;;4132170;28;20064;-74
2020/12/15 10:58:21;;;;;;;6.63;2.28;;;20.50;50.30;;;;;;4132730;28;20104;-72
2020/12/15 11:00:42;;;;;;;5.53;2.80;;;20.50;50.20;;;;;;4132134;28;20053;-70
2020/12/15 11:03:03;;;;;;;5.37;2.20;;;20.50;50.20;;;;;;4132596;28;20551;-78
2020/12/15 11:05:26;;;;;;;7.60;2.92;;;20.40;50.20;;;;;;4130764;28;20307;-77
2020/12/15 11:07:46;;;;;;;5.65;2.10;;;20.40;50.20;;;;;;4127433;28;20137;-76
2020/12/15 11:10:07;;;;;;;3.38;1.90;;;20.40;50.10;;;;;;4127483;28;20141;-77
2020/12/15 11:12:27;;;;;;;4.17;2.40;;;20.40;50.10;;;;;;4124191;28;20093;-76
2020/12/15 11:14:47;;;;;;;4.50;1.85;;;20.40;50.10;;;;;;4120500;28;20073;-75
2020/12/15 11:17:08;;;;;;;5.32;2.03;;;20.40;50.10;;;;;;4128193;28;20152;-78
2020/12/15 11:19:33;;;;;;;4.35;2.85;;;20.40;50.20;;;;;;4130340;28;20064;-81
2020/12/15 11:21:53;;;;;;;4.45;1.80;;;20.30;50.00;;;;;;4129860;28;20081;-84
2020/12/15 11:24:16;;;;;;;5.35;2.10;;;20.40;50.10;;;;;;4128090;28;20062;-70
2020/12/15 11:26:36;;;;;;;2.45;1.70;;;20.30;50.10;;;;;;4126201;28;20133;-72
2020/12/15 11:28:57;;;;;;;6.88;2.22;;;20.30;50.20;;;;;;4130451;28;20069;-69
2020/12/15 11:31:20;;;;;;;3.67;1.50;;;20.30;50.10;;;;;;4132239;28;20211;-69
2020/12/15 11:33:43;;;;;;;17.30;1.92;;;20.30;50.10;;;;;;4132263;28;20631;-73
2020/12/15 11:36:07;;;;;;;5.80;2.15;;;20.30;50.10;;;;;;4126228;28;20053;-74
2020/12/15 11:38:31;;;;;;;4.20;2.38;;;20.30;50.10;;;;;;4126915;28;20061;-74
2020/12/15 11:40:51;;;;;;;4.20;1.80;;;20.30;50.00;;;;;;4130222;28;20069;-73
2020/12/15 11:43:11;;;;;;;3.27;1.50;;;20.30;50.00;;;;;;4129272;28;20433;-78
2020/12/15 11:45:34;;;;;;;3.63;1.73;;;20.30;50.00;;;;;;4129416;28;20785;-76
2020/12/15 11:47:56;;;;;;;3.15;2.08;;;20.30;49.80;;;;;;4129287;28;20064;-76
2020/12/15 11:50:18;;;;;;;3.58;1.80;;;20.30;49.70;;;;;;4130715;28;20589;-72
2020/12/15 11:52:42;;;;;;;4.82;2.40;;;20.30;49.80;;;;;;4128878;28;20065;-74
2020/12/15 11:55:03;;;;;;;2.78;1.55;;;20.30;49.90;;;;;;4118809;28;20057;-73
2020/12/15 11:57:24;;;;;;;3.45;1.88;;;20.30;49.90;;;;;;4130174;28;20069;-73
2020/12/15 11:59:44;;;;;;;2.95;1.55;;;20.20;49.90;;;;;;4128864;28;20088;-72
2020/12/15 12:02:05;;;;;;;4.03;1.70;;;20.20;50.00;;;;;;4126178;28;20053;-73
2020/12/15 12:04:25;;;;;;;6.78;1.88;;;20.20;50.00;;;;;;4125638;28;20061;-73
2020/12/15 12:06:46;;;;;;;3.55;1.70;;;20.20;50.00;;;;;;4125371;28;20484;-80
2020/12/15 12:09:08;;;;;;;3.38;1.85;;;20.20;50.10;;;;;;4121301;28;20077;-71
2020/12/15 12:11:29;;;;;;;2.92;1.42;;;20.20;50.20;;;;;;4128927;28;20050;-69
2020/12/15 12:13:52;;;;;;;5.97;1.67;;;20.20;50.20;;;;;;4127138;28;20061;-67
2020/12/15 12:16:15;;;;;;;3.05;1.50;;;20.20;50.30;;;;;;4128372;28;20101;-69
2020/12/15 12:18:38;;;;;;;3.22;2.50;;;20.20;50.20;;;;;;4128192;28;20061;-75
2020/12/15 12:20:59;;;;;;;;;;;20.10;49.40;;;;;;4125420;28;20085;-71
2020/12/15 12:23:19;;;;;;;2.33;1.63;;;20.10;48.60;;;;;;4142971;28;19996;-70
2020/12/15 12:25:40;;;;;;;3.17;2.00;;;20.10;48.90;;;;;;4129777;28;20049;-75
2020/12/15 12:28:05;;;;;;;3.15;2.40;;;20.10;48.50;;;;;;4128103;28;20272;-69
2020/12/15 12:30:26;;;;;;;2.42;2.05;;;20.00;48.40;;;;;;4126490;28;20053;-69
2020/12/15 12:32:46;;;;;;;4.17;2.37;;;20.00;47.90;;;;;;4117592;28;20060;-69
2020/12/15 12:35:09;;;;;;;3.30;2.08;;;20.00;47.60;;;;;;4126948;28;20420;-69
2020/12/15 12:37:33;;;;;;;4.35;2.20;;;20.00;47.60;;;;;;4121847;28;20093;-69
2020/12/15 12:39:53;;;;;;;2.38;1.98;;;19.90;47.50;;;;;;4130591;28;20065;-69
2020/12/15 12:42:17;;;;;;;4.25;2.10;;;19.90;47.80;;;;;;4128489;28;20053;-69
2020/12/15 12:44:38;;;;;;;3.25;2.10;;;19.90;47.80;;;;;;4127244;28;20097;-69
2020/12/15 12:46:59;;;;;;;2.70;1.77;;;19.90;47.90;;;;;;4128772;28;20057;-69
2020/12/15 12:49:19;;;;;;;2.90;1.85;;;19.90;47.70;;;;;;4125772;28;20073;-69
2020/12/15 12:51:44;;;;;;;2.58;1.95;;;19.80;47.90;;;;;;4121407;28;20468;-69
2020/12/15 12:54:05;;;;;;;2.28;1.88;;;19.80;48.40;;;;;;4129083;28;20057;-68
2020/12/15 12:56:25;;;;;;;2.88;1.70;;;19.80;47.90;;;;;;4128708;28;20069;-69
2020/12/15 12:58:48;;;;;;;2.28;1.40;;;19.80;48.00;;;;;;4114982;28;20105;-69
2020/12/15 13:01:11;;;;;;;3.38;2.00;;;19.80;47.90;;;;;;4124549;28;20061;-69
2020/12/15 13:03:32;;;;;;;2.38;1.75;;;19.70;48.10;;;;;;4122942;28;20057;-79
2020/12/15 13:05:52;;;;;;;4.13;2.00;;;19.70;48.20;;;;;;4121545;28;20421;-80
2020/12/15 13:08:12;;;;;;;3.77;2.17;;;19.70;48.30;;;;;;4122277;28;20688;-77
2020/12/15 13:10:33;;;;;;;1.75;1.50;;;19.70;48.30;;;;;;4122497;28;20053;-77
2020/12/15 13:12:55;;;;;;;3.08;1.92;;;19.70;48.30;;;;;;4128095;28;20465;-73
2020/12/15 13:15:19;;;;;;;3.78;1.98;;;19.70;48.60;;;;;;4129890;28;20512;-74
2020/12/15 13:17:42;;;;;;;3.22;1.67;;;19.70;48.60;;;;;;4127963;28;20137;-72
2020/12/15 13:20:05;;;;;;;4.60;1.90;;;19.70;48.70;;;;;;4130315;28;20061;-72
2020/12/15 13:22:29;;;;;;;3.90;1.60;;;19.70;48.80;;;;;;4129706;28;20057;-75
2020/12/15 13:24:52;;;;;;;4.35;1.70;;;19.70;48.80;;;;;;4130295;28;20195;-74
2020/12/15 13:27:15;;;;;;;3.38;2.10;;;19.70;48.90;;;;;;4129937;28;20077;-75
2020/12/15 13:29:36;;;;;;;4.75;1.85;;;19.70;49.10;;;;;;4130292;28;20101;-67
2020/12/15 13:32:00;;;;;;;4.47;1.90;;;19.70;49.20;;;;;;4129595;28;20052;-70
2020/12/15 13:34:23;;;;;;;3.50;1.70;;;19.70;49.20;;;;;;4124931;28;20506;-66
2020/12/15 13:36:43;;;;;;;4.10;1.73;;;19.70;49.30;;;;;;4126606;28;20148;-67
2020/12/15 13:39:06;;;;;;;8.88;1.98;;;19.70;49.40;;;;;;4122017;28;20061;-65
2020/12/15 13:41:28;;;;;;;7.10;2.50;;;19.70;49.60;;;;;;4126939;28;20046;-67
2020/12/15 13:43:48;;;;;;;7.57;2.33;;;19.70;49.60;;;;;;4126958;28;20164;-66
2020/12/15 13:46:09;;;;;;;;;;;19.70;49.70;;;;;;4128295;28;20470;-68
2020/12/15 13:48:33;;;;;;;12.57;5.53;;;19.70;50.40;;;;;;4126018;28;19933;-66
2020/12/15 13:50:54;;;;;;;11.27;4.90;;;19.70;49.80;;;;;;4126922;28;20060;-65
2020/12/15 13:53:14;;;;;;;9.07;5.15;;;19.70;49.80;;;;;;4130835;28;20142;-68
2020/12/15 13:55:34;;;;;;;11.33;4.73;;;19.70;50.10;;;;;;4128464;28;20128;-66
2020/12/15 13:57:55;;;;;;;13.05;5.40;;;19.70;50.00;;;;;;4123900;28;20070;-68
2020/12/15 14:00:15;;;;;;;10.20;5.10;;;19.70;50.10;;;;;;4121333;28;20054;-68
2020/12/15 14:02:36;;;;;;;9.52;5.35;;;19.70;50.10;;;;;;4119863;28;20456;-72
2020/12/15 14:05:00;;;;;;;15.77;5.57;;;19.70;50.10;;;;;;4123180;28;20989;-74
2020/12/15 14:07:20;;;;;;;9.32;5.32;;;19.70;50.20;;;;;;4122068;28;21195;-72
2020/12/15 14:09:43;;;;;;;11.98;6.10;;;19.70;50.20;;;;;;4122830;28;20078;-73
2020/12/15 14:12:06;;;;;;;16.02;6.07;;;19.70;50.30;;;;;;4117632;28;20563;-72
2020/12/15 14:14:26;;;;;;;10.65;5.35;;;19.70;50.40;;;;;;4119643;28;20414;-71
2020/12/15 14:16:47;;;;;;;11.80;6.50;;;19.70;50.40;;;;;;4114467;28;20131;-70
2020/12/15 14:19:10;;;;;;;11.32;5.50;;;19.70;50.50;;;;;;4118840;28;20050;-66
2020/12/15 14:21:33;;;;;;;11.23;5.60;;;19.70;50.50;;;;;;4125861;28;20129;-68
2020/12/15 14:23:57;;;;;;;12.93;6.20;;;19.70;50.50;;;;;;4130067;28;20113;-70
2020/12/15 14:26:18;;;;;;;17.60;7.32;;;19.70;50.80;;;;;;4130644;28;20060;-69
2020/12/15 14:28:41;;;;;;;11.68;6.53;;;19.70;50.70;;;;;;4128060;28;20060;-70
2020/12/15 14:31:05;;;;;;;14.10;7.22;;;19.70;50.70;;;;;;4125810;28;20080;-68
2020/12/15 14:33:27;;;;;;;16.65;7.93;;;19.70;50.70;;;;;;4121035;28;20108;-69
2020/12/15 14:35:48;;;;;;;13.25;6.82;;;19.70;50.80;;;;;;4123195;28;20092;-73
2020/12/15 14:38:09;;;;;;;15.73;7.82;;;19.70;50.80;;;;;;4123459;28;20049;-71
2020/12/15 14:40:32;;;;;;;12.35;7.30;;;19.70;50.90;;;;;;4127907;28;20060;-71
2020/12/15 14:42:55;;;;;;;15.18;7.65;;;19.70;50.80;;;;;;4124244;28;20174;-71
2020/12/15 14:45:17;;;;;;;12.43;7.07;;;19.70;50.80;;;;;;4122506;28;20105;-71
2020/12/15 14:47:37;;;;;;;16.92;7.22;;;19.70;50.70;;;;;;4124543;28;20141;-71
2020/12/15 14:50:05;;;;;;;12.80;7.10;;;19.70;50.70;;;;;;4124836;28;20054;-71
2020/12/15 14:52:27;;;;;;;16.17;8.48;;;19.70;50.60;;;;;;4124780;28;20555;-71
2020/12/15 14:54:48;;;;;;;15.53;7.07;;;19.70;50.60;;;;;;4118146;28;20158;-71
2020/12/15 14:57:11;;;;;;;12.98;7.15;;;19.70;50.50;;;;;;4115560;28;20053;-71
2020/12/15 14:59:35;;;;;;;12.07;7.38;;;19.70;50.50;;;;;;4115653;28;20069;-71
2020/12/15 15:01:56;;;;;;;13.98;7.60;;;19.70;50.50;;;;;;4115987;28;20066;-71
2020/12/15 15:04:20;;;;;;;;;;;19.60;50.30;;;;;;4117285;28;20560;-71
2020/12/15 15:06:44;;;;;;;13.23;7.22;;;19.70;50.40;;;;;;4121429;28;19972;-71
2020/12/15 15:09:07;;;;;;;12.23;6.68;;;19.60;50.20;;;;;;4146339;28;20077;-70
2020/12/15 15:11:28;;;;;;;17.58;8.10;;;19.60;50.10;;;;;;4131968;28;20576;-71
2020/12/15 15:13:53;;;;;;;10.13;7.15;;;19.60;50.10;;;;;;4121098;28;20132;-71
2020/12/15 15:16:14;;;;;;;14.50;7.47;;;19.60;50.10;;;;;;4116125;28;20449;-71
2020/12/15 15:18:40;;;;;;;14.30;7.65;;;19.60;50.10;;;;;;4116267;28;20185;-71
2020/12/15 15:21:03;;;;;;;15.07;8.25;;;19.60;50.10;;;;;;4116102;28;20057;-71
2020/12/15 15:23:29;;;;;;;14.13;8.57;;;19.60;50.10;;;;;;4114822;28;20058;-71
2020/12/15 15:25:51;;;;;;;13.30;7.22;;;19.60;50.60;;;;;;4124499;28;20130;-71
2020/12/15 15:28:14;;;;;;;;;;;19.60;50.10;;;;;;4132864;28;20105;-71
2020/12/15 15:30:34;;;;;;;13.98;7.53;;;19.50;50.00;;;;;;4131350;28;20434;-71
2020/12/15 15:32:54;;;;;;;14.23;6.72;;;19.50;50.00;;;;;;4131677;28;20137;-71
2020/12/15 15:35:15;;;;;;;10.73;7.45;;;19.50;50.00;;;;;;4130395;28;20077;-71
2020/12/15 15:37:35;;;;;;;12.40;7.40;;;19.50;50.00;;;;;;4128351;28;20113;-71
2020/12/15 15:39:55;;;;;;;13.93;8.23;;;19.50;50.00;;;;;;4130753;28;20105;-71
2020/12/15 15:42:16;;;;;;;13.63;7.47;;;19.50;50.00;;;;;;4130325;28;20136;-71
2020/12/15 15:44:42;;;;;;;12.75;7.05;;;19.50;50.00;;;;;;4136755;28;20112;-71
2020/12/15 15:47:15;;;;;;;14.45;7.40;;;19.50;50.00;;;;;;4147602;28;20108;-71
2020/12/15 15:49:35;;;;;;;13.98;8.23;;;19.50;50.00;;;;;;4127336;28;20142;-72
2020/12/15 15:52:00;;;;;;;13.27;7.05;;;19.50;49.90;;;;;;4115389;28;20057;-71
2020/12/15 15:54:25;;;;;;;12.43;7.07;;;19.50;49.90;;;;;;4115671;28;20142;-71
2020/12/15 15:56:48;;;;;;;11.60;6.63;;;19.50;50.00;;;;;;4114702;28;20069;-71
2020/12/15 15:59:09;;;;;;;11.45;6.53;;;19.50;49.90;;;;;;4119664;28;20066;-71
2020/12/15 16:01:30;;;;;;;12.03;7.27;;;19.50;49.90;;;;;;4126657;28;20124;-71
2020/12/15 16:03:50;;;;;;;9.80;6.70;;;19.50;49.90;;;;;;4126583;28;20060;-70
2020/12/15 16:06:12;;;;;;;10.67;6.70;;;19.50;49.90;;;;;;4124152;28;20065;-70
2020/12/15 16:08:32;;;;;;;12.73;6.63;;;19.50;49.90;;;;;;4130575;28;20052;-71
2020/12/15 16:10:56;;;;;;;12.25;6.60;;;19.50;49.80;;;;;;4131662;28;20073;-71
2020/12/15 16:13:17;;;;;;;9.20;6.50;;;19.40;50.30;;;;;;4132274;28;20089;-71
2020/12/15 16:15:37;;;;;;;10.32;7.30;;;19.50;49.80;;;;;;4131171;28;20065;-71
2020/12/15 16:18:03;;;;;;;13.27;7.60;;;19.40;49.80;;;;;;4129276;28;20137;-74
2020/12/15 16:20:32;;;;;;;13.45;7.13;;;19.40;49.80;;;;;;4128185;28;20065;-70
2020/12/15 16:22:54;;;;;;;11.40;6.47;;;19.40;49.80;;;;;;4128470;28;20397;-73
2020/12/15 16:25:28;;;;;;;14.73;7.45;;;19.40;49.90;;;;;;4126433;28;20169;-70
2020/12/15 16:27:48;;;;;;;13.60;7.60;;;19.40;49.90;;;;;;4121643;28;20057;-71
2020/12/15 16:30:08;;;;;;;12.15;7.60;;;19.40;50.10;;;;;;4127230;28;20097;-71
2020/12/15 16:32:29;;;;;;;20.92;9.85;;;19.50;50.10;;;;;;4130056;28;20054;-71
2020/12/15 16:34:53;;;;;;;17.33;9.88;;;19.40;50.30;;;;;;4122703;28;20057;-69
2020/12/15 16:37:13;;;;;;;17.52;10.02;;;19.40;50.40;;;;;;4124433;28;20053;-67
2020/12/15 16:39:33;;;;;;;16.17;10.00;;;19.50;50.40;;;;;;4125849;28;20056;-66
2020/12/15 16:42:02;;;;;;;21.58;10.20;;;19.40;50.50;;;;;;4127552;28;20142;-69
2020/12/15 16:44:25;;;;;;;21.23;9.80;;;19.50;50.50;;;;;;4126586;28;20046;-69
2020/12/15 16:46:49;;;;;;;19.63;10.07;;;19.50;50.60;;;;;;4129377;28;20053;-69
2020/12/15 16:49:10;;;;;;;16.55;10.35;;;19.50;50.60;;;;;;4130818;28;20433;-67
2020/12/15 16:51:31;;;;;;;17.13;9.10;;;19.50;50.60;;;;;;4130133;28;20456;-68
2020/12/15 16:53:51;;;;;;;19.83;10.95;;;19.50;50.60;;;;;;4125887;28;20284;-68
2020/12/15 16:56:14;;;;;;;20.25;10.65;;;19.50;50.70;;;;;;4128588;28;20080;-66
2020/12/15 16:58:35;;;;;;;17.15;10.45;;;19.50;50.70;;;;;;4114316;28;20057;-67
2020/12/15 17:00:55;;;;;;;19.38;10.13;;;19.50;50.70;;;;;;4113640;28;20409;-68
2020/12/15 17:03:16;;;;;;;18.52;9.77;;;19.50;50.70;;;;;;4114394;28;20138;-65
2020/12/15 17:05:39;;;;;;;19.27;9.80;;;19.50;50.80;;;;;;4141320;28;20484;-66
2020/12/15 17:08:00;;;;;;;22.80;11.02;;;19.50;50.80;;;;;;4128395;28;20541;-66
2020/12/15 17:10:20;;;;;;;;;;;19.50;51.00;;;;;;4129167;28;20110;-65
2020/12/15 17:12:41;;;;;;;20.75;10.38;;;19.50;51.50;;;;;;4128492;28;19928;-65
2020/12/15 17:15:01;;;;;;;22.08;11.25;;;19.60;52.00;;;;;;4128427;28;20132;-64
2020/12/15 17:17:22;;;;;;;16.45;10.43;;;19.60;52.00;;;;;;4128612;28;20056;-65
2020/12/15 17:19:45;;;;;;;20.10;10.65;;;19.70;51.90;;;;;;4121907;28;20093;-65
2020/12/15 17:22:07;;;;;;;27.53;11.10;;;19.80;51.80;;;;;;4126306;28;20401;-65
2020/12/15 17:24:28;;;;;;;;;;;19.90;51.80;;;;;;4127678;28;20065;-64
2020/12/15 17:26:51;;;;;;;18.35;10.65;;;20.00;51.60;;;;;;4123410;28;20530;-65
2020/12/15 17:29:12;;;;;;;18.80;11.05;;;20.00;51.40;;;;;;4125426;28;20425;-64
2020/12/15 17:31:32;;;;;;;21.93;11.83;;;20.10;51.70;;;;;;4129256;28;20120;-69
2020/12/15 17:33:52;;;;;;;30.63;13.48;;;20.10;52.00;;;;;;4128022;28;20405;-68
2020/12/15 17:36:17;;;;;;;22.40;12.88;;;20.10;52.10;;;;;;4129269;28;20401;-64
2020/12/15 17:38:37;;;;;;;24.23;12.38;;;20.10;52.50;;;;;;4124108;28;20053;-65
2020/12/15 17:41:12;;;;;;;21.05;13.43;;;20.20;52.10;;;;;;4130254;28;20466;-66
2020/12/15 17:43:32;;;;;;;23.73;14.48;;;20.20;52.00;;;;;;4129703;28;20540;-66
2020/12/15 17:45:58;;;;;;;26.00;14.88;;;20.20;51.70;;;;;;4130543;28;20144;-68
2020/12/15 17:48:19;;;;;;;25.70;14.93;;;20.30;51.40;;;;;;4128915;28;20057;-67
2020/12/15 17:50:47;;;;;;;23.02;14.32;;;20.40;51.20;;;;;;4129449;28;20096;-67
2020/12/15 17:53:10;;;;;;;25.88;14.68;;;20.50;51.10;;;;;;4130521;28;20061;-65
2020/12/15 17:55:31;;;;;;;21.90;14.05;;;20.50;51.00;;;;;;4129469;28;20061;-67
2020/12/15 17:57:59;;;;;;;25.13;13.60;;;20.50;50.80;;;;;;4128924;28;20481;-69
2020/12/15 18:00:19;;;;;;;22.65;14.10;;;20.60;50.80;;;;;;4128964;28;20920;-64
2020/12/15 18:02:42;;;;;;;23.17;14.13;;;20.60;50.70;;;;;;4127406;28;20104;-65
2020/12/15 18:05:05;;;;;;;25.90;15.95;;;20.60;50.70;;;;;;4124311;28;20078;-63
2020/12/15 18:07:28;;;;;;;22.77;14.35;;;20.60;51.10;;;;;;4125729;28;20054;-64
2020/12/15 18:09:50;;;;;;;26.35;15.00;;;20.60;51.10;;;;;;4127413;28;20143;-66
2020/12/15 18:12:11;;;;;;;23.20;14.48;;;20.70;51.50;;;;;;4126634;28;20181;-65
2020/12/15 18:14:41;;;;;;;31.13;14.73;;;20.70;52.00;;;;;;4127928;28;20057;-64
2020/12/15 18:17:05;;;;;;;26.10;13.50;;;20.70;51.40;;;;;;4113634;28;20069;-65
2020/12/15 18:19:28;;;;;;;24.45;14.30;;;20.70;51.30;;;;;;4113281;28;20058;-65
2020/12/15 18:21:51;;;;;;;25.25;14.73;;;20.70;51.20;;;;;;4112906;28;20057;-65